Time;durP1;ratioP1;P1;durP2;ratioP2;P2;SDS_P1;SDS_P2;PMS_P1;PMS_P2;Temp;Humidity;BMP_temperature;BMP_pressure;BME280_temperature;BME280_humidity;BME280_pressure;Samples;Min_cycle;Max_cycle;Signal;HPM_P1;HPM_P2
2022/03/20 00:01:02;;;;;;;;;9.00;7.75;;;;;15.31;34.77;100864.97;4894987;28;102294;-83
2022/03/20 00:03:33;;;;;;;;;8.75;6.00;;;;;15.30;34.83;100875.03;4894413;28;103743;-84
2022/03/20 00:06:00;;;;;;;;;8.00;6.00;;;;;15.30;34.61;100864.13;4891835;28;102764;-83
2022/03/20 00:08:27;;;;;;;;;9.50;8.75;;;;;15.30;34.55;100863.28;4902277;28;104248;-83
2022/03/20 00:10:55;;;;;;;;;8.00;6.00;;;;;15.30;34.44;100861.41;4903158;28;102456;-83
2022/03/20 00:13:23;;;;;;;;;7.00;6.00;;;;;15.30;34.84;100871.44;4894583;28;102441;-83
2022/03/20 00:15:51;;;;;;;;;10.75;9.00;;;;;15.29;34.81;100867.03;4905722;28;102547;-83
2022/03/20 00:18:26;;;;;;;;;6.25;6.25;;;;;15.29;34.76;100875.19;4908831;28;104086;-83
2022/03/20 00:20:58;;;;;;;;;12.75;8.00;;;;;15.28;35.07;100863.44;4903730;28;102605;-83
2022/03/20 00:23:25;;;;;;;;;9.00;8.00;;;;;15.26;35.07;100859.22;4895603;28;102159;-83
2022/03/20 00:25:53;;;;;;;;;10.25;8.50;;;;;15.24;34.78;100862.09;4923143;28;102488;-83
2022/03/20 00:28:23;;;;;;;;;10.00;9.50;;;;;15.25;34.94;100868.41;4912552;28;108836;-83
2022/03/20 00:30:50;;;;;;;;;9.00;7.00;;;;;15.23;34.77;100871.28;4908105;28;102873;-83
2022/03/20 00:33:17;;;;;;;;;10.25;7.75;;;;;15.22;34.67;100866.03;4926692;28;102053;-83
2022/03/20 00:35:44;;;;;;;;;9.25;7.50;;;;;15.21;34.69;100864.34;4896273;28;103318;-83
2022/03/20 00:38:11;;;;;;;;;8.75;7.75;;;;;15.17;34.83;100861.94;4902506;28;104982;-83
2022/03/20 00:40:39;;;;;;;;;7.00;7.00;;;;;15.17;34.90;100861.13;4915447;28;102703;-83
2022/03/20 00:43:06;;;;;;;;;9.00;8.25;;;;;15.13;34.52;100857.88;4896889;28;102305;-83
2022/03/20 00:45:33;;;;;;;;;9.25;8.75;;;;;15.12;34.80;100860.78;4902645;28;102263;-83
2022/03/20 00:48:00;;;;;;;;;10.50;9.00;;;;;15.11;35.11;100868.09;4899392;28;104253;-83
2022/03/20 00:50:28;;;;;;;;;10.00;7.00;;;;;15.08;35.17;100868.44;4892134;28;102600;-83
2022/03/20 00:52:56;;;;;;;;;7.00;6.50;;;;;15.09;35.12;100875.59;4904581;28;102083;-84
2022/03/20 00:55:23;;;;;;;;;9.50;8.25;;;;;15.09;35.06;100870.16;4902924;28;103404;-83
2022/03/20 00:57:50;;;;;;;;;9.50;8.50;;;;;15.07;34.78;100863.19;4903353;28;108826;-83
2022/03/20 01:00:17;;;;;;;;;9.00;8.00;;;;;15.04;35.22;100858.91;4896455;28;102575;-83
2022/03/20 01:02:45;;;;;;;;;8.00;7.25;;;;;15.05;34.62;100868.78;4883291;28;103048;-83
2022/03/20 01:05:13;;;;;;;;;7.50;6.50;;;;;15.05;34.91;100862.50;4894485;28;102431;-83
2022/03/20 01:07:41;;;;;;;;;14.50;11.00;;;;;15.03;35.09;100868.13;4896637;28;104902;-83
2022/03/20 01:10:09;;;;;;;;;8.00;7.75;;;;;15.03;34.57;100864.56;4898481;28;102679;-83
2022/03/20 01:12:37;;;;;;;;;9.00;8.00;;;;;15.01;34.88;100862.00;4921808;28;102256;-83
2022/03/20 01:15:06;;;;;;;;;10.75;9.00;;;;;15.01;35.08;100856.53;4899073;28;102650;-83
2022/03/20 01:17:34;;;;;;;;;9.00;7.50;;;;;15.01;35.09;100862.00;4897836;28;104149;-83
2022/03/20 01:20:03;;;;;;;;;9.25;9.00;;;;;15.02;35.07;100860.97;4893342;28;102307;-83
2022/03/20 01:22:30;;;;;;;;;10.25;7.25;;;;;15.02;34.98;100857.41;4893631;28;102488;-84
2022/03/20 01:24:57;;;;;;;;;10.00;8.75;;;;;15.01;35.00;100859.28;4901605;28;102668;-84
2022/03/20 01:27:24;;;;;;;;;9.50;9.00;;;;;15.02;34.75;100852.81;4899901;28;103599;-83
2022/03/20 01:29:52;;;;;;;;;7.75;6.50;;;;;15.02;35.18;100852.81;4896608;28;102645;-83
2022/03/20 01:32:23;;;;;;;;;9.00;8.50;;;;;15.04;35.12;100858.91;4904948;28;102344;-83
2022/03/20 01:34:50;;;;;;;;;9.00;7.25;;;;;15.04;35.01;100856.19;4897418;28;102403;-83
2022/03/20 01:37:18;;;;;;;;;10.75;9.50;;;;;15.03;34.62;100840.88;4896960;28;104162;-83
2022/03/20 01:39:45;;;;;;;;;6.75;6.75;;;;;15.04;34.50;100845.28;4896242;28;102196;-83
2022/03/20 01:42:12;;;;;;;;;9.00;9.00;;;;;15.04;34.86;100850.75;4891067;28;102621;-83
2022/03/20 01:44:39;;;;;;;;;9.75;8.50;;;;;15.05;34.53;100852.44;4901501;28;104457;-83
2022/03/20 01:47:11;;;;;;;;;10.25;8.50;;;;;15.04;34.40;100845.28;4889905;28;105308;-83
2022/03/20 01:49:38;;;;;;;;;7.50;7.00;;;;;15.04;34.45;100847.19;4891095;28;102445;-83
2022/03/20 01:52:13;;;;;;;;;8.50;7.75;;;;;15.03;34.61;100849.06;4892425;28;102529;-83
2022/03/20 01:54:44;;;;;;;;;9.00;9.00;;;;;15.04;34.38;100850.75;4891796;28;103327;-83
2022/03/20 01:57:20;;;;;;;;;12.75;9.00;;;;;15.04;34.78;100856.19;4893485;28;104807;-83
2022/03/20 01:59:49;;;;;;;;;10.00;9.25;;;;;15.03;34.62;100853.66;4891927;28;102621;-83
2022/03/20 02:02:16;;;;;;;;;9.50;8.25;;;;;15.03;34.96;100842.75;4864468;28;102857;-84
2022/03/20 02:04:43;;;;;;;;;9.00;8.00;;;;;15.04;34.72;100836.28;4885631;28;102242;-83
2022/03/20 02:07:10;;;;;;;;;11.00;9.25;;;;;14.99;34.87;100831.38;4901400;28;104147;-84
2022/03/20 02:09:37;;;;;;;;;9.75;9.00;;;;;15.02;34.80;100844.63;4877673;28;104893;-83
2022/03/20 02:12:05;;;;;;;;;11.00;10.00;;;;;15.03;34.90;100851.78;4885824;28;102222;-83
2022/03/20 02:14:33;;;;;;;;;8.50;8.25;;;;;15.02;34.83;100841.91;4899951;28;102613;-83
2022/03/20 02:17:04;;;;;;;;;9.00;8.00;;;;;15.02;34.75;100841.91;4886807;28;104174;-83
2022/03/20 02:19:34;;;;;;;;;10.25;8.50;;;;;15.03;34.93;100838.16;4894094;28;102532;-83
2022/03/20 02:22:01;;;;;;;;;10.00;8.50;;;;;15.03;34.61;100838.16;4900525;28;102398;-83
2022/03/20 02:24:39;;;;;;;;;9.00;9.00;;;;;15.03;34.46;100838.16;4896058;28;102899;-83
2022/03/20 02:27:08;;;;;;;;;13.75;9.50;;;;;15.02;34.40;100835.59;4891576;28;103990;-83
2022/03/20 02:29:36;;;;;;;;;9.50;8.50;;;;;15.01;34.46;100834.75;4902347;28;102495;-83
2022/03/20 02:32:04;;;;;;;;;8.75;8.75;;;;;15.00;34.24;100822.16;4897308;28;102653;-83
2022/03/20 02:34:32;;;;;;;;;10.00;9.00;;;;;15.00;34.35;100819.41;4893515;28;102678;-83
2022/03/20 02:37:01;;;;;;;;;9.00;9.00;;;;;14.98;34.63;100824.22;4896506;28;104852;-83
2022/03/20 02:39:28;;;;;;;;;11.25;9.75;;;;;14.99;34.90;100825.91;4884050;28;104093;-84
2022/03/20 02:41:56;;;;;;;;;9.75;7.25;;;;;14.98;34.58;100828.81;4897696;28;102175;-84
2022/03/20 02:44:48;;;;;;;;;11.50;9.50;;;;;14.98;34.93;100832.38;4891054;28;102647;-83
2022/03/20 02:47:20;;;;;;;;;10.75;9.00;;;;;14.96;34.34;100831.69;4889162;28;109107;-83
2022/03/20 02:50:16;;;;;;;;;9.00;8.75;;;;;14.95;34.67;100838.16;4899658;28;102541;-83
2022/03/20 02:52:54;;;;;;;;;8.00;8.00;;;;;14.95;34.32;100840.88;4893374;28;102676;-83
2022/03/20 02:55:36;;;;;;;;;12.25;7.75;;;;;14.94;34.17;100833.75;4888376;28;102569;-84
2022/03/20 02:58:09;;;;;;;;;11.00;9.50;;;;;14.95;34.86;100830.00;4893383;28;111458;-84
2022/03/20 03:00:37;;;;;;;;;8.50;8.00;;;;;14.95;34.31;100829.16;4895856;28;102621;-84
2022/03/20 03:03:06;;;;;;;;;11.75;10.25;;;;;14.93;34.50;100823.88;4905101;28;102316;-84
2022/03/20 03:05:33;;;;;;;;;8.00;8.00;;;;;14.94;34.45;100824.75;4897972;28;102656;-84
2022/03/20 03:10:57;;;;;;;;;10.25;9.25;;;;;14.92;34.21;100819.44;4894993;28;102071;-83
2022/03/20 03:13:36;;;;;;;;;10.00;10.00;;;;;14.92;34.68;100824.06;4902436;28;102542;-84
2022/03/20 03:16:08;;;;;;;;;10.25;8.75;;;;;14.91;34.84;100831.38;4916440;28;102420;-83
2022/03/20 03:18:36;;;;;;;;;12.75;10.25;;;;;14.91;34.34;100838.69;4891402;28;104151;-84
2022/03/20 03:21:03;;;;;;;;;11.00;10.00;;;;;14.89;34.21;100825.25;4895443;28;102109;-84
2022/03/20 03:23:31;;;;;;;;;9.00;9.00;;;;;14.89;34.72;100825.25;4903304;28;102280;-83
2022/03/20 03:25:58;;;;;;;;;10.00;8.50;;;;;14.88;34.33;100833.59;4903496;28;102470;-83
2022/03/20 03:28:32;;;;;;;;;13.00;11.00;;;;;14.87;34.31;100835.47;4892430;28;108941;-84
2022/03/20 03:30:59;;;;;;;;;12.00;9.75;;;;;14.88;34.63;100845.34;4892216;28;102212;-84
2022/03/20 03:33:26;;;;;;;;;11.75;11.00;;;;;14.88;34.92;100839.91;4898775;28;102163;-84
2022/03/20 03:35:57;;;;;;;;;12.50;9.50;;;;;14.90;34.42;100845.19;4890222;28;102623;-84
2022/03/20 03:38:34;;;;;;;;;8.25;7.25;;;;;14.89;34.33;100847.06;4892559;28;109842;-84
2022/03/20 03:41:01;;;;;;;;;12.00;10.00;;;;;14.90;34.42;100837.00;4895567;28;102546;-83
2022/03/20 03:43:28;;;;;;;;;10.25;9.25;;;;;14.90;34.19;100837.88;4893784;28;102464;-83
2022/03/20 03:45:56;;;;;;;;;15.50;12.50;;;;;14.91;34.70;100830.50;4891782;28;102504;-83
2022/03/20 03:48:23;;;;;;;;;11.00;10.50;;;;;14.89;34.29;100833.44;4893603;28;108936;-83
2022/03/20 03:50:52;;;;;;;;;13.50;11.25;;;;;14.89;34.22;100830.72;4893968;28;102580;-84
2022/03/20 03:53:19;;;;;;;;;13.00;10.50;;;;;14.89;34.23;100825.25;4898477;28;102233;-84
2022/03/20 03:55:46;;;;;;;;;12.75;10.00;;;;;14.90;34.87;100826.13;4897194;28;102522;-84
2022/03/20 03:58:13;;;;;;;;;12.00;11.00;;;;;14.88;34.40;100825.44;4896819;28;104042;-83
2022/03/20 04:00:41;;;;;;;;;14.50;11.50;;;;;14.89;34.13;100830.72;4887437;28;102521;-84
2022/03/20 04:03:08;;;;;;;;;12.25;11.00;;;;;14.89;34.54;100824.41;4893797;28;102520;-84
2022/03/20 04:05:35;;;;;;;;;12.25;12.00;;;;;14.87;34.49;100827.31;4904093;28;102337;-84
2022/03/20 04:08:06;;;;;;;;;13.00;12.75;;;;;14.86;34.78;100831.03;4894037;28;104305;-84
2022/03/20 04:10:33;;;;;;;;;10.75;9.25;;;;;14.84;34.27;100841.28;4897866;28;102398;-85
2022/03/20 04:13:00;;;;;;;;;11.75;9.25;;;;;14.84;34.65;100843.16;4900362;28;102365;-83
2022/03/20 04:15:27;;;;;;;;;11.50;10.75;;;;;14.83;34.36;100839.56;4926207;28;102570;-84
2022/03/20 04:17:54;;;;;;;;;13.00;10.75;;;;;14.81;34.70;100844.34;4893681;28;108910;-84
2022/03/20 04:20:22;;;;;;;;;13.75;12.25;;;;;14.80;34.73;100837.22;4890540;28;102621;-84
2022/03/20 04:25:39;;;;;;;;;10.25;10.00;;;;;14.80;34.12;100841.78;4890453;28;103603;-85
2022/03/20 04:28:06;;;;;;;;;14.50;11.75;;;;;14.81;34.07;100849.81;4915554;28;104353;-84
2022/03/20 04:30:34;;;;;;;;;13.00;11.00;;;;;14.80;34.51;100847.25;4893088;28;102353;-84
2022/03/20 04:33:01;;;;;;;;;15.75;11.00;;;;;14.78;34.25;100844.69;4890418;28;102388;-84
2022/03/20 04:35:28;;;;;;;;;11.00;10.75;;;;;14.78;34.52;100850.13;4903247;28;103595;-84
2022/03/20 04:38:01;;;;;;;;;15.00;13.00;;;;;14.76;34.43;100852.19;4893803;28;108961;-84
2022/03/20 04:40:28;;;;;;;;;13.00;12.00;;;;;14.74;34.55;100854.22;4899626;28;102615;-84
2022/03/20 04:42:55;;;;;;;;;19.00;13.00;;;;;14.72;34.17;100856.28;4889223;28;102612;-84
2022/03/20 04:45:23;;;;;;;;;14.50;13.50;;;;;14.70;34.39;100861.91;4895611;28;102425;-84
2022/03/20 04:59:12;;;;;;;;;12.00;12.00;;;;;14.61;34.14;100886.59;4898433;28;108312;-84
2022/03/20 05:01:39;;;;;;;;;13.00;11.75;;;;;14.59;34.96;100894.09;4890970;28;101973;-84
2022/03/20 05:04:06;;;;;;;;;10.75;10.75;;;;;14.60;34.34;100885.72;4895354;28;102355;-84
2022/03/20 05:06:33;;;;;;;;;12.50;11.00;;;;;14.60;34.51;100890.31;4902295;28;102588;-84
2022/03/20 05:14:31;;;;;;;;;16.75;12.75;;;;;14.61;34.52;100889.31;4891495;28;102754;-84
2022/03/20 05:17:08;;;;;;;;;12.50;12.25;;;;;14.61;34.17;100895.59;4896603;28;102552;-83
2022/03/20 05:19:36;;;;;;;;;13.75;13.00;;;;;14.60;34.63;100888.44;4901274;28;104097;-84
2022/03/20 05:22:05;;;;;;;;;12.50;11.75;;;;;14.62;34.57;100885.56;4894481;28;102261;-84
2022/03/20 05:24:35;;;;;;;;;14.25;14.00;;;;;14.61;34.26;100890.16;4897676;28;102700;-84
2022/03/20 05:27:03;;;;;;;;;14.25;13.25;;;;;14.61;34.41;100890.16;4898135;28;102528;-84
2022/03/20 05:29:31;;;;;;;;;11.50;11.50;;;;;14.61;34.36;100890.16;4892651;28;103977;-84
2022/03/20 05:31:58;;;;;;;;;13.25;11.75;;;;;14.62;34.28;100900.03;4896459;28;102568;-83
2022/03/20 05:34:25;;;;;;;;;16.00;12.25;;;;;14.61;34.57;100897.47;4895698;28;104897;-84
2022/03/20 05:36:52;;;;;;;;;16.25;13.25;;;;;14.62;34.48;100907.34;4909140;28;102323;-83
2022/03/20 05:39:19;;;;;;;;;12.25;12.00;;;;;14.62;34.59;100904.63;4898427;28;104108;-83
2022/03/20 05:41:47;;;;;;;;;12.50;12.00;;;;;14.58;34.37;100901.41;4903875;28;102732;-84
2022/03/20 05:44:20;;;;;;;;;14.75;12.00;;;;;14.60;34.26;100907.50;4910550;28;102662;-83
2022/03/20 05:46:51;;;;;;;;;13.00;11.50;;;;;14.61;34.02;100902.91;4911198;28;102375;-84
2022/03/20 05:49:19;;;;;;;;;12.75;11.75;;;;;14.60;34.54;100912.94;4895136;28;104085;-84
2022/03/20 05:51:46;;;;;;;;;11.25;11.00;;;;;14.62;34.38;100904.63;4893840;28;102490;-84
2022/03/20 05:54:15;;;;;;;;;14.50;12.50;;;;;14.64;34.67;100913.47;4901459;28;102561;-83
2022/03/20 05:59:28;;;;;;;;;12.75;12.25;;;;;14.63;34.42;100912.59;4899022;28;109000;-83
2022/03/20 06:01:55;;;;;;;;;15.00;14.50;;;;;14.63;34.13;100903.63;4904689;28;102566;-84
2022/03/20 06:04:22;;;;;;;;;13.50;11.00;;;;;14.63;34.44;100914.50;4898990;28;102592;-84
2022/03/20 06:06:49;;;;;;;;;12.75;11.75;;;;;14.62;34.54;100910.94;4894875;28;102144;-84
2022/03/20 06:09:16;;;;;;;;;9.25;9.25;;;;;14.63;34.33;100919.94;4892719;28;104075;-83
2022/03/20 06:11:43;;;;;;;;;19.00;14.25;;;;;14.63;34.58;100917.22;4894640;28;102551;-83
2022/03/20 06:14:10;;;;;;;;;16.50;14.50;;;;;14.62;33.94;100921.81;4899317;28;102524;-84
2022/03/20 06:16:38;;;;;;;;;13.00;10.00;;;;;14.62;34.00;100916.38;4897939;28;102320;-83
2022/03/20 06:19:05;;;;;;;;;15.50;12.75;;;;;14.63;33.99;100923.50;4891332;28;104174;-84
2022/03/20 06:21:33;;;;;;;;;12.25;11.75;;;;;14.64;34.56;100924.34;4891570;28;102241;-83
2022/03/20 06:24:00;;;;;;;;;13.00;11.75;;;;;14.64;34.32;100927.06;4889944;28;102494;-84
2022/03/20 06:26:27;;;;;;;;;16.25;13.25;;;;;14.63;34.04;100928.94;4898193;28;102366;-83
2022/03/20 06:28:54;;;;;;;;;13.50;10.75;;;;;14.65;33.76;100926.06;4891520;28;104119;-84
2022/03/20 06:31:22;;;;;;;;;15.50;12.75;;;;;14.65;34.03;100926.06;4891145;28;102187;-84
2022/03/20 06:33:58;;;;;;;;;14.00;11.00;;;;;14.66;34.35;100934.06;4906338;28;102151;-84
2022/03/20 06:36:25;;;;;;;;;14.25;11.25;;;;;14.65;34.07;100936.94;4897097;28;102789;-84
2022/03/20 06:38:52;;;;;;;;;12.25;10.75;;;;;14.65;33.93;100940.53;4904928;28;104047;-84
2022/03/20 06:41:19;;;;;;;;;13.75;12.25;;;;;14.65;34.22;100945.13;4899131;28;102554;-84
2022/03/20 06:43:46;;;;;;;;;12.25;9.75;;;;;14.64;34.13;100949.72;4895880;28;102617;-84
2022/03/20 06:46:13;;;;;;;;;13.25;12.00;;;;;14.64;34.74;100952.44;4896749;28;102519;-84
2022/03/20 06:48:51;;;;;;;;;16.75;13.25;;;;;14.65;34.66;100953.28;4908579;28;104074;-84
2022/03/20 06:51:18;;;;;;;;;13.75;12.50;;;;;14.65;34.30;100964.19;4896425;28;102458;-83
2022/03/20 06:53:45;;;;;;;;;16.00;11.50;;;;;14.65;34.02;100961.47;4891443;28;102322;-84
2022/03/20 06:56:13;;;;;;;;;12.25;11.25;;;;;14.66;34.57;100960.44;4896120;28;102662;-84
2022/03/20 06:58:40;;;;;;;;;14.25;12.00;;;;;14.65;34.70;100962.31;4892549;28;104058;-84
2022/03/20 07:01:08;;;;;;;;;12.00;10.50;;;;;14.66;34.73;100972.19;4918941;28;102537;-84
2022/03/20 07:03:36;;;;;;;;;11.00;11.00;;;;;14.66;34.50;100976.78;4890105;28;102574;-84
2022/03/20 07:06:03;;;;;;;;;16.50;10.50;;;;;14.67;34.26;100978.50;4903622;28;102259;-83
2022/03/20 07:08:30;;;;;;;;;12.00;11.00;;;;;14.66;34.36;100980.34;4905548;28;104322;-84
2022/03/20 07:10:57;;;;;;;;;12.75;11.00;;;;;14.66;34.14;100977.63;4888658;28;102559;-83
2022/03/20 07:16:13;;;;;;;;;11.25;11.00;;;;;14.67;34.08;100990.25;4899006;28;102511;-84
2022/03/20 07:18:40;;;;;;;;;12.25;11.00;;;;;14.70;34.63;100994.47;4919727;28;104406;-84
2022/03/20 07:21:08;;;;;;;;;14.75;11.25;;;;;14.70;34.38;100989.03;4886179;28;102481;-83
2022/03/20 07:23:37;;;;;;;;;18.75;13.50;;;;;14.71;34.41;100990.75;4920163;28;102481;-83
2022/03/20 07:31:36;;;;;;;;;10.75;9.50;;;;;14.71;34.75;100996.19;4897164;28;102539;-84
2022/03/20 07:34:03;;;;;;;;;10.25;10.25;;;;;14.72;34.20;100992.47;4897070;28;102515;-84
2022/03/20 07:36:30;;;;;;;;;13.50;12.50;;;;;14.72;34.84;100992.47;4896001;28;102443;-83
2022/03/20 07:38:57;;;;;;;;;10.50;10.00;;;;;14.74;34.60;100999.41;4899651;28;107750;-83
2022/03/20 07:41:24;;;;;;;;;12.25;11.50;;;;;14.77;34.78;101000.13;4895128;28;102609;-83
2022/03/20 07:43:51;;;;;;;;;13.75;12.50;;;;;14.78;34.62;100991.75;4895363;28;102666;-83
2022/03/20 07:46:18;;;;;;;;;12.00;11.00;;;;;14.77;34.68;100990.03;4886828;28;102688;-83
2022/03/20 07:48:47;;;;;;;;;13.50;12.00;;;;;14.80;34.64;100988.88;4892631;28;104246;-83
2022/03/20 07:51:17;;;;;;;;;10.75;9.25;;;;;14.82;34.25;100997.72;4888166;28;102626;-83
2022/03/20 07:53:45;;;;;;;;;14.00;11.50;;;;;14.84;34.54;100996.53;4893849;28;102576;-83
2022/03/20 07:56:12;;;;;;;;;12.25;11.00;;;;;14.84;34.26;101001.97;4894563;28;102152;-83
2022/03/20 07:58:39;;;;;;;;;10.75;10.50;;;;;14.87;34.35;101009.81;4898430;28;104183;-83
2022/03/20 08:01:06;;;;;;;;;11.75;11.00;;;;;14.89;34.42;100998.75;4895131;28;102547;-83
2022/03/20 08:03:33;;;;;;;;;12.00;11.50;;;;;14.89;34.81;100994.16;4899377;28;102509;-84
2022/03/20 08:06:00;;;;;;;;;11.00;9.00;;;;;14.91;34.06;101005.72;4896580;28;102145;-83
2022/03/20 08:08:27;;;;;;;;;14.50;11.50;;;;;14.90;34.79;101004.03;4893228;28;103622;-83
2022/03/20 08:10:55;;;;;;;;;10.75;9.25;;;;;14.91;34.00;101003.00;4898600;28;103729;-83
2022/03/20 08:13:22;;;;;;;;;9.00;8.00;;;;;14.91;34.53;100999.41;4897316;28;102553;-83
2022/03/20 08:15:49;;;;;;;;;11.00;10.00;;;;;14.91;34.31;101008.44;4893839;28;102470;-83
2022/03/20 08:18:16;;;;;;;;;12.00;10.00;;;;;14.92;34.56;101006.56;4893289;28;104169;-83
2022/03/20 08:20:44;;;;;;;;;10.50;9.75;;;;;14.92;34.67;101007.44;4889814;28;105443;-83
2022/03/20 08:23:11;;;;;;;;;11.00;11.00;;;;;14.93;34.09;101020.03;4902627;28;102558;-83
2022/03/20 08:25:38;;;;;;;;;14.25;11.75;;;;;14.91;34.26;101013.03;4905224;28;102645;-83
2022/03/20 08:28:07;;;;;;;;;12.25;11.00;;;;;14.90;34.27;101012.22;4892879;28;104083;-83
2022/03/20 08:30:34;;;;;;;;;8.50;7.00;;;;;14.90;34.33;101001.31;4903907;28;103723;-84
2022/03/20 08:33:01;;;;;;;;;11.50;10.50;;;;;14.91;34.90;101008.44;4897281;28;102668;-83
2022/03/20 08:35:28;;;;;;;;;11.25;11.00;;;;;14.90;34.71;101006.75;4893025;28;102603;-83
2022/03/20 08:37:55;;;;;;;;;13.50;10.75;;;;;14.91;34.03;101002.13;4901943;28;104507;-83
2022/03/20 08:40:23;;;;;;;;;11.00;10.00;;;;;14.91;34.41;100997.53;4891953;28;102377;-83
2022/03/20 08:42:54;;;;;;;;;12.00;10.00;;;;;14.91;34.30;101007.59;4896901;28;103776;-83
2022/03/20 08:45:22;;;;;;;;;12.00;9.25;;;;;14.89;34.53;101002.31;4895315;28;102261;-83
2022/03/20 08:47:49;;;;;;;;;11.75;11.00;;;;;14.90;34.26;101001.31;4900366;28;104888;-83
2022/03/20 08:50:17;;;;;;;;;15.25;11.00;;;;;14.90;34.64;100997.75;4894325;28;102459;-83
2022/03/20 08:52:45;;;;;;;;;10.75;10.00;;;;;14.89;34.45;100994.16;4899942;28;102772;-83
2022/03/20 08:55:13;;;;;;;;;9.50;8.50;;;;;14.88;34.97;100999.75;4893819;28;102632;-83
2022/03/20 08:57:41;;;;;;;;;12.75;10.00;;;;;14.88;34.77;101007.94;4918079;28;104179;-83
2022/03/20 09:00:09;;;;;;;;;9.25;9.25;;;;;14.87;34.52;100998.91;4897766;28;103019;-84
2022/03/20 09:02:37;;;;;;;;;9.75;8.75;;;;;14.86;34.25;100997.19;4896201;28;102339;-83
2022/03/20 09:05:05;;;;;;;;;10.00;10.00;;;;;14.85;34.51;100994.66;4900372;28;104537;-83
2022/03/20 09:07:32;;;;;;;;;11.00;10.50;;;;;14.84;34.13;100988.38;4902716;28;109034;-83
2022/03/20 09:09:59;;;;;;;;;12.00;9.75;;;;;14.84;34.64;100995.69;4892886;28;102123;-83
2022/03/20 09:12:26;;;;;;;;;11.50;10.00;;;;;14.85;34.30;100986.50;4893787;28;102152;-83
2022/03/20 09:14:53;;;;;;;;;12.00;10.50;;;;;14.84;34.57;100993.81;4890704;28;102153;-83
2022/03/20 09:20:07;;;;;;;;;12.25;9.75;;;;;14.88;34.02;100978.81;4893501;28;102565;-84
2022/03/20 09:22:34;;;;;;;;;11.00;9.25;;;;;14.89;34.41;100977.81;4894772;28;102458;-83
2022/03/20 09:25:01;;;;;;;;;11.00;10.25;;;;;14.92;34.24;100979.31;4903746;28;102624;-83
2022/03/20 09:27:28;;;;;;;;;10.00;10.00;;;;;14.93;34.27;100983.75;4891299;28;104321;-83
2022/03/20 09:29:55;;;;;;;;;14.00;12.00;;;;;14.94;34.40;100983.59;4899840;28;102813;-83
2022/03/20 09:32:23;;;;;;;;;9.25;9.25;;;;;14.95;34.04;100988.00;4893994;28;102564;-83
2022/03/20 09:34:50;;;;;;;;;10.75;10.75;;;;;14.97;34.31;100985.13;4899832;28;102304;-83
2022/03/20 09:37:17;;;;;;;;;6.50;5.50;;;;;14.97;34.38;100979.66;4891614;28;104107;-83
2022/03/20 09:39:44;;;;;;;;;10.00;9.00;;;;;14.97;34.19;100980.53;4892707;28;102124;-83
2022/03/20 09:42:11;;;;;;;;;9.00;9.00;;;;;14.99;34.36;100983.94;4893575;28;102609;-83
2022/03/20 09:44:38;;;;;;;;;9.25;9.00;;;;;15.00;34.02;100982.91;4920675;28;102362;-83
2022/03/20 09:47:12;;;;;;;;;10.00;9.75;;;;;15.02;34.58;100975.41;4892054;28;104063;-83
2022/03/20 09:49:39;;;;;;;;;10.75;8.00;;;;;15.02;34.10;100972.69;4896124;28;102281;-83
2022/03/20 09:52:06;;;;;;;;;9.00;8.00;;;;;15.05;34.04;100976.94;4894132;28;102213;-84
2022/03/20 09:54:34;;;;;;;;;10.75;9.25;;;;;15.05;34.53;100983.22;4918481;28;102535;-84
2022/03/20 09:57:05;;;;;;;;;11.50;9.25;;;;;15.09;34.63;100978.28;4888843;28;109111;-83
2022/03/20 09:59:32;;;;;;;;;9.75;9.25;;;;;15.09;33.94;100976.41;4891759;28;102044;-84
2022/03/20 10:02:07;;;;;;;;;10.75;10.00;;;;;15.12;34.12;100977.97;4899887;28;102417;-84
2022/03/20 10:04:54;;;;;;;;;8.00;8.00;;;;;15.13;34.41;100975.03;4923138;28;103722;-83
2022/03/20 10:07:28;;;;;;;;;12.75;9.50;;;;;15.15;34.45;100983.06;4894654;28;109174;-84
2022/03/20 10:10:14;;;;;;;;;9.00;8.50;;;;;15.17;34.31;100987.28;4895234;28;102186;-83
2022/03/20 10:12:52;;;;;;;;;10.00;9.50;;;;;15.19;34.08;100979.81;4880358;28;102343;-83
2022/03/20 10:15:38;;;;;;;;;8.00;8.00;;;;;15.21;34.42;100973.34;4897132;28;102788;-83
2022/03/20 10:18:17;;;;;;;;;7.00;7.00;;;;;15.21;34.35;100970.63;4890029;28;108617;-84
2022/03/20 10:20:46;;;;;;;;;10.75;10.50;;;;;15.22;34.59;100978.59;4903320;28;102236;-84
2022/03/20 10:23:33;;;;;;;;;9.25;9.00;;;;;15.25;34.20;100974.69;4883868;28;102472;-83
2022/03/20 10:26:06;;;;;;;;;10.50;8.75;;;;;15.26;34.07;100980.00;4903791;28;102177;-83
2022/03/20 10:28:37;;;;;;;;;9.50;7.75;;;;;15.26;34.04;100980.00;4890522;28;109005;-84
2022/03/20 10:31:06;;;;;;;;;8.75;8.00;;;;;15.28;34.39;100977.06;4885408;28;103588;-84
2022/03/20 10:33:38;;;;;;;;;9.50;8.75;;;;;15.29;34.38;100976.06;4895983;28;102563;-84
2022/03/20 10:36:12;;;;;;;;;8.00;7.50;;;;;15.30;34.15;100981.34;4889963;28;102481;-83
2022/03/20 10:38:40;;;;;;;;;7.25;6.75;;;;;15.32;34.18;100975.69;4887027;28;109254;-83
2022/03/20 10:41:34;;;;;;;;;8.25;7.75;;;;;15.33;33.95;100966.50;4895315;28;102197;-84
2022/03/20 10:44:27;;;;;;;;;12.50;8.75;;;;;15.36;34.59;100967.00;4887796;28;102416;-84
2022/03/20 10:47:16;;;;;;;;;8.00;8.00;;;;;15.38;34.36;100958.66;4889029;28;102207;-84
2022/03/20 10:49:51;;;;;;;;;8.75;8.00;;;;;15.39;34.47;100965.81;4897450;28;110191;-84
2022/03/20 10:52:19;;;;;;;;;10.00;9.00;;;;;15.39;34.29;100953.03;4908065;28;105213;-84
2022/03/20 10:54:49;;;;;;;;;10.25;8.50;;;;;15.39;34.30;100947.59;4916786;28;102595;-83
2022/03/20 10:57:16;;;;;;;;;9.25;7.75;;;;;15.41;34.31;100950.13;4893270;28;102199;-83
2022/03/20 11:00:14;;;;;;;;;7.00;6.75;;;;;15.41;34.11;100947.38;4897005;28;104225;-83
2022/03/20 11:02:42;;;;;;;;;7.75;7.00;;;;;15.40;34.20;100953.88;4893531;28;102615;-84
2022/03/20 11:05:09;;;;;;;;;9.25;7.75;;;;;15.40;34.44;100948.44;4922741;28;102826;-84
2022/03/20 11:07:37;;;;;;;;;11.75;9.75;;;;;15.41;34.56;100945.50;4899885;28;102813;-84
2022/03/20 11:10:11;;;;;;;;;6.00;5.75;;;;;15.40;34.59;100937.53;4897858;28;104176;-84
2022/03/20 11:12:40;;;;;;;;;10.25;8.25;;;;;15.42;34.45;100935.47;4890280;28;102938;-84
2022/03/20 11:15:08;;;;;;;;;8.50;8.00;;;;;15.41;34.56;100939.22;4903060;28;102238;-84
2022/03/20 11:17:43;;;;;;;;;8.75;8.00;;;;;15.40;34.33;100929.34;4894847;28;102639;-84
2022/03/20 11:20:15;;;;;;;;;9.25;8.25;;;;;15.41;34.57;100915.53;4902031;28;108684;-84
2022/03/20 11:22:49;;;;;;;;;8.75;8.00;;;;;15.42;34.20;100914.50;4900505;28;102503;-84
2022/03/20 11:25:20;;;;;;;;;11.00;9.50;;;;;15.43;34.29;100912.63;4899480;28;102604;-84
2022/03/20 11:27:59;;;;;;;;;8.50;8.00;;;;;15.46;34.61;100913.13;4907455;28;102682;-83
2022/03/20 11:30:28;;;;;;;;;9.25;8.00;;;;;15.48;34.39;100912.97;4884668;28;104173;-84
2022/03/20 11:32:57;;;;;;;;;8.00;7.00;;;;;15.50;34.58;100910.88;4897069;28;102436;-84
2022/03/20 11:35:29;;;;;;;;;10.00;8.50;;;;;15.49;34.31;100901.03;4906500;28;102519;-84
2022/03/20 11:37:59;;;;;;;;;8.00;7.00;;;;;15.51;34.32;100897.13;4901236;28;102595;-84
2022/03/20 11:40:26;;;;;;;;;9.50;8.00;;;;;15.54;34.57;100906.81;4903831;28;103763;-84
2022/03/20 11:43:25;;;;;;;;;8.25;8.00;;;;;15.55;34.22;100903.06;4898801;28;102626;-84
2022/03/20 11:46:25;;;;;;;;;6.25;5.00;;;;;15.57;34.47;100901.88;4863516;28;102756;-84
2022/03/20 11:49:14;;;;;;;;;7.75;7.00;;;;;15.58;34.70;100900.81;4908482;28;102732;-84
2022/03/20 11:51:50;;;;;;;;;7.00;6.00;;;;;15.60;34.34;100897.94;4919485;28;109037;-84
2022/03/20 11:54:17;;;;;;;;;9.50;7.00;;;;;15.61;34.38;100896.91;4898807;28;102523;-84
2022/03/20 11:56:44;;;;;;;;;8.25;6.75;;;;;15.63;34.38;100890.25;4912339;28;102369;-84